Time;durP1;ratioP1;P1;durP2;ratioP2;P2;SDS_P1;SDS_P2;PMS_P1;PMS_P2;Temp;Humidity;BMP_temperature;BMP_pressure;BME280_temperature;BME280_humidity;BME280_pressure;Samples;Min_cycle;Max_cycle;Signal;HPM_P1;HPM_P2
2022/04/02 00:00:05;;;;;;;14.00;11.77;;;3.90;85.90;;;;;;5050441;28;20454;-70
2022/04/02 00:02:30;;;;;;;13.38;11.00;;;3.90;85.80;;;;;;5051010;28;20067;-70
2022/04/02 00:04:56;;;;;;;15.93;11.73;;;3.90;85.60;;;;;;5050534;28;20056;-70
2022/04/02 00:07:22;;;;;;;13.63;11.27;;;3.90;85.40;;;;;;5050544;28;20127;-71
2022/04/02 00:09:48;;;;;;;13.65;11.75;;;3.90;85.20;;;;;;5050957;28;20090;-69
2022/04/02 00:12:13;;;;;;;14.48;11.55;;;3.90;85.30;;;;;;5050341;28;20100;-69
2022/04/02 00:14:39;;;;;;;13.07;11.65;;;3.80;85.30;;;;;;5050800;28;20099;-69
2022/04/02 00:17:05;;;;;;;14.95;12.45;;;3.90;85.40;;;;;;5050219;28;20043;-70
2022/04/02 00:19:31;;;;;;;13.27;11.75;;;3.90;85.70;;;;;;5050522;28;20454;-69
2022/04/02 00:21:57;;;;;;;13.82;11.93;;;3.90;85.90;;;;;;5049777;28;20025;-70
2022/04/02 00:24:22;;;;;;;14.90;11.40;;;3.80;86.20;;;;;;5050716;28;20033;-72
2022/04/02 00:26:48;;;;;;;13.32;11.93;;;3.70;86.00;;;;;;5050672;28;20040;-70
2022/04/02 00:29:13;;;;;;;12.55;11.15;;;3.70;86.20;;;;;;5050111;28;20040;-71
2022/04/02 00:31:40;;;;;;;14.07;11.50;;;3.70;86.60;;;;;;5050711;28;20036;-70
2022/04/02 00:34:07;;;;;;;13.80;11.77;;;3.70;87.00;;;;;;5049871;28;20112;-70
2022/04/02 00:36:37;;;;;;;16.13;12.07;;;3.70;87.00;;;;;;5050580;28;20036;-69
2022/04/02 00:39:04;;;;;;;16.52;12.23;;;3.70;86.90;;;;;;5050101;28;20025;-69
2022/04/02 00:41:30;;;;;;;13.40;11.82;;;3.70;87.20;;;;;;5050679;28;20053;-69
2022/04/02 00:43:59;;;;;;;15.30;12.95;;;3.70;87.50;;;;;;5050063;28;20082;-68
2022/04/02 00:46:25;;;;;;;17.42;12.65;;;3.80;88.10;;;;;;5050674;28;20137;-71
2022/04/02 00:48:51;;;;;;;15.48;12.00;;;3.80;88.30;;;;;;5050644;28;20033;-70
2022/04/02 00:51:18;;;;;;;15.80;12.60;;;3.70;88.30;;;;;;5050002;28;20470;-70
2022/04/02 00:53:50;;;;;;;15.25;12.88;;;3.80;88.40;;;;;;5053315;28;20033;-69
2022/04/02 00:56:15;;;;;;;16.23;12.52;;;3.80;88.70;;;;;;5053931;28;20106;-69
2022/04/02 00:58:41;;;;;;;14.50;12.40;;;3.70;88.60;;;;;;5054456;28;20041;-70
2022/04/02 01:01:07;;;;;;;14.32;12.18;;;3.80;88.40;;;;;;5053637;28;20032;-69
2022/04/02 01:03:34;;;;;;;15.40;12.40;;;3.80;88.40;;;;;;5054082;28;20049;-69
2022/04/02 01:06:00;;;;;;;18.35;12.65;;;3.70;87.20;;;;;;5053914;28;20028;-69
2022/04/02 01:08:26;;;;;;;14.98;12.80;;;3.80;87.60;;;;;;5053785;28;20044;-70
2022/04/02 01:10:56;;;;;;;16.17;12.45;;;3.80;87.80;;;;;;5054099;28;20433;-70
2022/04/02 01:13:23;;;;;;;14.30;12.68;;;3.80;87.50;;;;;;5054126;28;20048;-70
2022/04/02 01:15:48;;;;;;;17.70;13.15;;;3.80;87.50;;;;;;5053956;28;20530;-69
2022/04/02 01:18:14;;;;;;;20.38;13.18;;;3.80;87.80;;;;;;5053234;28;20131;-68
2022/04/02 01:20:40;;;;;;;14.80;12.98;;;3.80;87.50;;;;;;5052628;28;20362;-69
2022/04/02 01:23:06;;;;;;;16.27;12.55;;;3.80;87.70;;;;;;5053182;28;20037;-69
2022/04/02 01:25:32;;;;;;;17.73;13.52;;;3.80;87.70;;;;;;5053779;28;20461;-69
2022/04/02 01:28:01;;;;;;;18.40;13.45;;;3.80;87.90;;;;;;5053106;28;20037;-71
2022/04/02 01:30:28;;;;;;;18.42;14.40;;;3.80;88.30;;;;;;5053817;28;20072;-71
2022/04/02 01:32:55;;;;;;;17.17;14.52;;;3.80;88.90;;;;;;5053786;28;20032;-69
2022/04/02 01:35:21;;;;;;;16.92;13.65;;;3.90;89.00;;;;;;5053642;28;20501;-70
2022/04/02 01:37:50;;;;;;;17.75;13.57;;;3.80;88.70;;;;;;5053634;28;20353;-72
2022/04/02 01:40:16;;;;;;;19.08;14.52;;;3.80;88.70;;;;;;5052939;28;20108;-69
2022/04/02 01:42:42;;;;;;;16.65;13.60;;;3.80;89.00;;;;;;5053524;28;20108;-69
2022/04/02 01:45:09;;;;;;;18.20;14.35;;;3.90;88.90;;;;;;5052893;28;20110;-70
2022/04/02 01:47:35;;;;;;;21.60;15.18;;;3.90;89.00;;;;;;5053447;28;20064;-70
2022/04/02 01:50:01;;;;;;;18.95;14.73;;;3.80;88.90;;;;;;5052814;28;20056;-71
2022/04/02 01:52:26;;;;;;;21.48;15.07;;;3.80;89.10;;;;;;5053295;28;20033;-68
2022/04/02 01:54:52;;;;;;;22.73;14.88;;;3.80;89.20;;;;;;5053090;28;20083;-69
2022/04/02 01:57:18;;;;;;;18.50;14.68;;;3.80;89.10;;;;;;5052765;28;20033;-69
2022/04/02 01:59:47;;;;;;;19.35;15.25;;;3.80;89.40;;;;;;5053331;28;20021;-70
2022/04/02 02:02:13;;;;;;;20.20;14.38;;;3.80;89.70;;;;;;5052483;28;20025;-70
2022/04/02 02:04:39;;;;;;;20.70;14.40;;;3.80;90.00;;;;;;5052541;28;20393;-70
2022/04/02 02:07:06;;;;;;;22.77;15.07;;;3.80;90.00;;;;;;5052486;28;20047;-71
2022/04/02 02:09:33;;;;;;;20.92;14.35;;;3.80;90.10;;;;;;5052989;28;20053;-68
2022/04/02 02:12:00;;;;;;;21.77;15.55;;;3.80;90.10;;;;;;5052269;28;20495;-69
2022/04/02 02:14:26;;;;;;;18.20;14.98;;;3.80;90.20;;;;;;5052299;28;20342;-70
2022/04/02 02:16:52;;;;;;;17.92;15.00;;;3.80;90.30;;;;;;5052785;28;20056;-70
2022/04/02 02:19:18;;;;;;;18.80;14.48;;;3.80;89.70;;;;;;5052351;28;20474;-70
2022/04/02 02:21:43;;;;;;;17.77;13.80;;;3.80;90.00;;;;;;5052813;28;20040;-70
2022/04/02 02:24:09;;;;;;;22.77;15.00;;;3.80;89.90;;;;;;5052213;28;20025;-69
2022/04/02 02:26:35;;;;;;;22.83;14.93;;;3.80;90.00;;;;;;5052348;28;20382;-70
2022/04/02 02:29:04;;;;;;;17.20;14.45;;;3.80;90.30;;;;;;5052041;28;20086;-70
2022/04/02 02:31:31;;;;;;;24.45;15.85;;;3.70;90.20;;;;;;5052269;28;20508;-69
2022/04/02 02:36:41;;;;;;;19.35;14.73;;;3.70;90.30;;;;;;5052307;28;20509;-72
2022/04/02 02:39:06;;;;;;;22.42;14.68;;;3.70;90.40;;;;;;5051943;28;20025;-69
2022/04/02 02:41:32;;;;;;;19.65;14.93;;;3.70;90.70;;;;;;5052521;28;20032;-71
2022/04/02 02:43:57;;;;;;;20.17;15.10;;;3.70;90.80;;;;;;5051468;28;20063;-70
2022/04/02 02:46:23;;;;;;;19.05;14.07;;;3.70;91.00;;;;;;5052679;28;20033;-71
2022/04/02 02:48:49;;;;;;;24.45;14.80;;;3.70;91.10;;;;;;5052434;28;20037;-70
2022/04/02 02:51:14;;;;;;;20.90;15.15;;;3.70;91.10;;;;;;5052030;28;20083;-70
2022/04/02 02:53:40;;;;;;;18.58;14.27;;;3.70;91.20;;;;;;5052337;28;20373;-70
2022/04/02 02:56:06;;;;;;;15.90;13.43;;;3.70;91.20;;;;;;5051513;28;20056;-70
2022/04/02 02:58:32;;;;;;;20.35;14.05;;;3.70;90.90;;;;;;5052232;28;20104;-69
2022/04/02 03:00:58;;;;;;;20.25;13.57;;;3.70;90.80;;;;;;5051488;28;20025;-69
2022/04/02 03:03:24;;;;;;;17.08;13.48;;;3.70;91.00;;;;;;5052042;28;20083;-70
2022/04/02 03:05:50;;;;;;;18.50;12.68;;;3.70;90.80;;;;;;5052049;28;20021;-69
2022/04/02 03:08:16;;;;;;;18.85;12.85;;;3.70;90.60;;;;;;5051262;28;20033;-69
2022/04/02 03:10:44;;;;;;;18.27;12.90;;;3.70;90.60;;;;;;5051888;28;20587;-69
2022/04/02 03:13:10;;;;;;;23.88;12.82;;;3.70;90.70;;;;;;5050841;28;20033;-70
2022/04/02 03:15:36;;;;;;;21.63;13.23;;;3.80;90.60;;;;;;5051154;28;20025;-71
2022/04/02 03:18:04;;;;;;;21.30;13.55;;;3.70;90.30;;;;;;5050448;28;20028;-71
2022/04/02 03:20:31;;;;;;;15.15;12.70;;;3.70;90.40;;;;;;5051794;28;20021;-70
2022/04/02 03:22:57;;;;;;;15.40;12.43;;;3.80;90.50;;;;;;5050999;28;20057;-74
2022/04/02 03:25:23;;;;;;;18.45;12.23;;;3.70;90.40;;;;;;5051668;28;20429;-69
2022/04/02 03:27:49;;;;;;;15.63;12.38;;;3.80;90.50;;;;;;5051537;28;20040;-69
2022/04/02 03:30:20;;;;;;;18.65;12.27;;;3.80;90.30;;;;;;5051018;28;20359;-71
2022/04/02 03:32:46;;;;;;;19.42;12.45;;;3.80;90.30;;;;;;5051565;28;20028;-71
2022/04/02 03:35:14;;;;;;;16.30;11.40;;;3.70;90.30;;;;;;5050692;28;20036;-69
2022/04/02 03:37:41;;;;;;;21.42;12.00;;;3.70;89.30;;;;;;5051693;28;20040;-70
2022/04/02 03:40:09;;;;;;;15.40;11.43;;;3.70;89.30;;;;;;5050789;28;20392;-70
2022/04/02 03:42:38;;;;;;;14.60;11.98;;;3.70;89.40;;;;;;5050894;28;20458;-69
2022/04/02 03:45:05;;;;;;;17.52;11.38;;;3.70;89.60;;;;;;5050736;28;20052;-68
2022/04/02 03:47:31;;;;;;;14.00;11.10;;;3.70;88.90;;;;;;5051166;28;20386;-69
2022/04/02 03:49:57;;;;;;;15.80;11.05;;;3.70;88.90;;;;;;5051169;28;20112;-69
2022/04/02 03:52:24;;;;;;;17.55;10.77;;;3.70;89.00;;;;;;5051061;28;20036;-70
2022/04/02 03:54:49;;;;;;;16.55;10.82;;;3.70;88.60;;;;;;5050784;28;20389;-69
2022/04/02 03:57:15;;;;;;;14.88;10.93;;;3.70;87.30;;;;;;5050571;28;20033;-69
2022/04/02 03:59:42;;;;;;;16.98;11.65;;;3.70;86.80;;;;;;5050717;28;20454;-69
2022/04/02 04:02:09;;;;;;;16.90;10.68;;;3.70;86.70;;;;;;5050394;28;20021;-70
2022/04/02 04:04:35;;;;;;;15.05;10.95;;;3.70;86.70;;;;;;5050386;28;20504;-71
2022/04/02 04:07:01;;;;;;;12.93;10.98;;;3.70;86.90;;;;;;5050502;28;20146;-71
2022/04/02 04:09:27;;;;;;;19.55;10.93;;;3.70;87.50;;;;;;5050286;28;20153;-70
2022/04/02 04:11:54;;;;;;;17.30;11.50;;;3.80;87.20;;;;;;5050467;28;20086;-70
2022/04/02 04:14:22;;;;;;;15.10;10.25;;;3.80;86.90;;;;;;5050690;28;20025;-71
2022/04/02 04:16:48;;;;;;;16.77;11.40;;;3.80;87.00;;;;;;5051299;28;20034;-69
2022/04/02 04:19:14;;;;;;;13.00;10.45;;;3.70;86.70;;;;;;5051079;28;20100;-69
2022/04/02 04:21:40;;;;;;;17.55;10.82;;;3.70;86.80;;;;;;5051880;28;20061;-69
2022/04/02 04:24:07;;;;;;;16.58;11.77;;;3.80;86.90;;;;;;5051302;28;20036;-69
2022/04/02 04:26:33;;;;;;;17.58;11.20;;;3.70;86.40;;;;;;5051577;28;20044;-70
2022/04/02 04:28:59;;;;;;;13.45;9.88;;;3.70;86.10;;;;;;5054814;28;20045;-75
2022/04/02 04:31:25;;;;;;;19.20;10.40;;;3.70;86.20;;;;;;5055955;28;20025;-69
2022/04/02 04:33:50;;;;;;;13.13;10.85;;;3.70;86.40;;;;;;5055598;28;20091;-69
2022/04/02 04:36:18;;;;;;;16.42;11.13;;;3.60;86.50;;;;;;5054730;28;20359;-69
2022/04/02 04:38:45;;;;;;;16.55;11.20;;;3.60;86.60;;;;;;5055166;28;20108;-69
2022/04/02 04:41:11;;;;;;;15.63;10.63;;;3.60;87.10;;;;;;5054612;28;20025;-70
2022/04/02 04:43:37;;;;;;;16.48;10.95;;;3.60;86.70;;;;;;5055575;28;20051;-69
2022/04/02 04:46:04;;;;;;;14.88;11.35;;;3.60;86.70;;;;;;5054899;28;20036;-70
2022/04/02 04:48:30;;;;;;;15.05;10.75;;;3.60;86.60;;;;;;5055312;28;20040;-69
2022/04/02 04:50:55;;;;;;;21.48;11.40;;;3.60;87.00;;;;;;5055541;28;20072;-70
2022/04/02 04:53:21;;;;;;;19.00;11.13;;;3.60;87.30;;;;;;5054373;28;20037;-68
2022/04/02 04:55:48;;;;;;;13.35;10.32;;;3.70;87.40;;;;;;5053922;28;20132;-68
2022/04/02 04:58:14;;;;;;;17.13;11.02;;;3.70;87.10;;;;;;5054674;28;20040;-69
2022/04/02 05:00:42;;;;;;;16.70;11.25;;;3.70;86.80;;;;;;5053484;28;20035;-69
2022/04/02 05:03:12;;;;;;;18.52;11.75;;;3.70;86.70;;;;;;5054337;28;20025;-69
2022/04/02 05:05:56;;;;;;;18.42;11.80;;;3.70;86.50;;;;;;5055015;28;20246;-69
2022/04/02 05:08:23;;;;;;;16.02;11.68;;;3.70;86.10;;;;;;5054293;28;20043;-70
2022/04/02 05:10:50;;;;;;;15.32;10.55;;;3.80;85.90;;;;;;5054831;28;20032;-69
2022/04/02 05:13:16;;;;;;;14.40;10.30;;;3.80;86.00;;;;;;5054344;28;20029;-70
2022/04/02 05:15:43;;;;;;;14.85;10.95;;;3.80;86.20;;;;;;5054442;28;20028;-69
2022/04/02 05:18:10;;;;;;;17.25;11.13;;;3.80;86.30;;;;;;5053882;28;20115;-69
2022/04/02 05:20:37;;;;;;;15.38;10.68;;;3.80;86.00;;;;;;5054732;28;20116;-70
2022/04/02 05:23:04;;;;;;;17.40;10.88;;;3.80;85.90;;;;;;5054275;28;20083;-73
2022/04/02 05:25:30;;;;;;;18.25;11.68;;;3.90;85.80;;;;;;5054730;28;20104;-69
2022/04/02 05:27:56;;;;;;;13.95;10.95;;;3.90;85.60;;;;;;5054567;28;20128;-69
2022/04/02 05:30:22;;;;;;;15.80;11.10;;;3.90;86.00;;;;;;5054057;28;20036;-70
2022/04/02 05:32:47;;;;;;;16.52;11.32;;;3.90;85.80;;;;;;5054373;28;20080;-69
2022/04/02 05:35:13;;;;;;;23.50;10.88;;;3.90;85.60;;;;;;5053800;28;20033;-70
2022/04/02 05:37:45;;;;;;;17.85;11.82;;;3.90;85.30;;;;;;5054275;28;20032;-69
2022/04/02 05:42:56;;;;;;;17.70;10.88;;;3.90;84.70;;;;;;5053410;28;20033;-69
2022/04/02 05:45:21;;;;;;;22.83;11.75;;;3.90;84.90;;;;;;5053506;28;20028;-69
2022/04/02 05:47:49;;;;;;;15.23;10.40;;;3.90;84.40;;;;;;5054250;28;20040;-69
2022/04/02 05:50:16;;;;;;;14.73;11.18;;;3.90;84.30;;;;;;5053762;28;20017;-69
2022/04/02 05:52:42;;;;;;;20.42;12.43;;;3.90;84.20;;;;;;5053650;28;20036;-69
2022/04/02 05:55:12;;;;;;;20.25;10.88;;;3.90;84.30;;;;;;5052774;28;20049;-70
2022/04/02 05:57:41;;;;;;;17.90;11.25;;;3.90;83.90;;;;;;5052673;28;20024;-70
2022/04/02 06:00:10;;;;;;;17.90;11.30;;;3.90;83.90;;;;;;5053180;28;20025;-70
2022/04/02 06:02:37;;;;;;;20.27;11.73;;;4.00;83.70;;;;;;5053202;28;20045;-71
2022/04/02 06:05:03;;;;;;;15.55;11.50;;;4.00;84.30;;;;;;5052168;28;20375;-70
2022/04/02 06:07:30;;;;;;;16.00;10.68;;;4.00;84.50;;;;;;5052734;28;20075;-70
2022/04/02 06:09:56;;;;;;;18.05;11.25;;;4.00;84.10;;;;;;5053530;28;20028;-69
2022/04/02 06:12:22;;;;;;;19.98;11.45;;;4.00;83.90;;;;;;5052851;28;20382;-70
2022/04/02 06:14:48;;;;;;;23.20;11.35;;;4.00;83.80;;;;;;5055477;28;20119;-71
2022/04/02 06:17:13;;;;;;;20.77;10.60;;;4.00;83.00;;;;;;5059616;28;20025;-70
2022/04/02 06:19:39;;;;;;;16.83;10.43;;;4.00;82.40;;;;;;5056173;28;20036;-69
2022/04/02 06:22:08;;;;;;;22.27;11.00;;;4.00;82.30;;;;;;5065839;28;20099;-69
2022/04/02 06:24:34;;;;;;;16.70;11.27;;;4.00;81.90;;;;;;5051093;28;20048;-69
2022/04/02 06:27:00;;;;;;;25.05;11.43;;;3.90;81.90;;;;;;5057717;28;20065;-68
2022/04/02 06:29:26;;;;;;;16.38;10.48;;;3.90;81.80;;;;;;5054670;28;20372;-69
2022/04/02 06:31:51;;;;;;;16.88;11.43;;;3.90;82.10;;;;;;5054876;28;20045;-69
2022/04/02 06:34:17;;;;;;;20.52;10.73;;;3.90;81.80;;;;;;5052047;28;20031;-69
2022/04/02 06:36:43;;;;;;;15.07;9.52;;;4.00;82.00;;;;;;5051695;28;20029;-69
2022/04/02 06:39:08;;;;;;;17.83;11.02;;;4.00;81.20;;;;;;5051282;28;20017;-70
2022/04/02 06:41:34;;;;;;;19.42;10.85;;;4.00;81.50;;;;;;5051908;28;20199;-69
2022/04/02 06:43:59;;;;;;;20.25;11.13;;;4.00;81.20;;;;;;5051749;28;20728;-70
2022/04/02 06:46:25;;;;;;;22.88;10.95;;;4.00;81.30;;;;;;5054692;28;20036;-70
2022/04/02 06:48:51;;;;;;;18.33;10.63;;;4.00;81.30;;;;;;5064957;28;20056;-71
2022/04/02 06:51:36;;;;;;;14.85;10.52;;;4.10;81.00;;;;;;5065195;28;20082;-71
2022/04/02 06:54:01;;;;;;;17.88;11.40;;;4.10;80.80;;;;;;5061477;28;20052;-70
2022/04/02 06:56:27;;;;;;;19.65;10.50;;;4.10;80.80;;;;;;5053371;28;20068;-71
2022/04/02 06:58:53;;;;;;;16.52;9.50;;;4.10;80.30;;;;;;5053676;28;20112;-69
2022/04/02 07:01:19;;;;;;;20.27;11.52;;;4.10;80.00;;;;;;5068577;28;20039;-69
2022/04/02 07:03:44;;;;;;;16.77;10.90;;;4.10;79.80;;;;;;5071875;28;20029;-69
2022/04/02 07:06:10;;;;;;;19.27;11.00;;;4.10;79.60;;;;;;5060519;28;20028;-68
2022/04/02 07:08:36;;;;;;;19.67;10.55;;;4.10;79.70;;;;;;5052190;28;20155;-69
2022/04/02 07:11:03;;;;;;;16.10;10.77;;;4.20;80.10;;;;;;5051789;28;20028;-69
2022/04/02 07:13:29;;;;;;;16.77;10.88;;;4.20;79.60;;;;;;5051164;28;20110;-68
2022/04/02 07:15:55;;;;;;;24.17;11.48;;;4.20;79.30;;;;;;5051365;28;20032;-72
2022/04/02 07:18:23;;;;;;;19.85;11.25;;;4.20;78.70;;;;;;5055271;28;20036;-68
2022/04/02 07:20:53;;;;;;;17.92;11.90;;;4.20;79.20;;;;;;5061304;28;20036;-68
2022/04/02 07:23:20;;;;;;;22.63;12.00;;;4.30;78.90;;;;;;5066182;28;20202;-68
2022/04/02 07:25:48;;;;;;;16.33;11.68;;;4.30;79.70;;;;;;5055489;28;20037;-69
2022/04/02 07:28:14;;;;;;;16.92;10.70;;;4.40;78.90;;;;;;5051115;28;20462;-69
2022/04/02 07:30:40;;;;;;;20.35;12.07;;;4.40;78.90;;;;;;5052683;28;20032;-69
2022/04/02 07:33:06;;;;;;;21.15;12.00;;;4.50;77.90;;;;;;5051833;28;20021;-69
2022/04/02 07:35:41;;;;;;;15.70;11.77;;;4.60;78.40;;;;;;5050129;28;20218;-70
2022/04/02 07:38:19;;;;;;;18.48;12.32;;;4.60;77.20;;;;;;5050786;28;20021;-69
2022/04/02 07:40:53;;;;;;;21.95;11.40;;;4.80;76.80;;;;;;5050644;28;20062;-69
2022/04/02 07:43:43;;;;;;;17.42;10.63;;;4.90;76.60;;;;;;5049679;28;20031;-69
2022/04/02 07:46:16;;;;;;;20.83;11.15;;;5.00;76.00;;;;;;5047061;28;20024;-73
2022/04/02 07:48:46;;;;;;;17.23;11.45;;;5.00;75.40;;;;;;5050768;28;20029;-69
2022/04/02 07:51:31;;;;;;;17.38;10.52;;;5.00;75.20;;;;;;5059029;28;20440;-69
2022/04/02 07:54:02;;;;;;;25.60;12.00;;;5.10;74.70;;;;;;5058328;28;20029;-69
2022/04/02 07:56:30;;;;;;;17.10;12.32;;;5.20;75.30;;;;;;5069990;28;20215;-68
2022/04/02 07:59:06;;;;;;;17.33;11.50;;;5.20;75.20;;;;;;5058379;28;20124;-68
2022/04/02 08:01:32;;;;;;;18.65;11.93;;;5.20;74.40;;;;;;5050882;28;20036;-69
2022/04/02 08:04:03;;;;;;;17.10;10.77;;;5.20;73.90;;;;;;5050961;28;20029;-68
2022/04/02 08:06:32;;;;;;;19.27;11.65;;;5.20;73.30;;;;;;5051107;28;20028;-69
2022/04/02 08:08:59;;;;;;;22.20;12.10;;;5.20;74.10;;;;;;5050572;28;20090;-69
2022/04/02 08:11:26;;;;;;;19.30;12.30;;;5.10;73.80;;;;;;5050579;28;20482;-69
2022/04/02 08:13:52;;;;;;;20.20;12.60;;;5.20;72.90;;;;;;5046985;28;20501;-69
2022/04/02 08:16:19;;;;;;;18.48;12.75;;;5.10;71.70;;;;;;5050301;28;20025;-68
2022/04/02 08:18:47;;;;;;;20.83;12.55;;;5.10;71.90;;;;;;5051711;28;20029;-69
2022/04/02 08:21:13;;;;;;;23.25;13.32;;;5.10;72.20;;;;;;5048796;28;20028;-68
2022/04/02 08:23:39;;;;;;;17.15;11.93;;;5.10;71.90;;;;;;5050884;28;20071;-70
2022/04/02 08:26:11;;;;;;;25.08;12.88;;;5.10;72.80;;;;;;5051128;28;20061;-70
2022/04/02 08:28:59;;;;;;;18.73;12.65;;;5.10;71.40;;;;;;5051222;28;20033;-69
2022/04/02 08:31:31;;;;;;;18.58;11.73;;;5.10;71.70;;;;;;5051080;28;20463;-69
2022/04/02 08:34:34;;;;;;;20.52;12.98;;;5.10;71.70;;;;;;5051402;28;20032;-70
2022/04/02 08:37:13;;;;;;;21.17;12.38;;;5.10;72.10;;;;;;5050874;28;20032;-71
2022/04/02 08:40:06;;;;;;;18.13;11.40;;;5.00;71.10;;;;;;5051107;28;20082;-70
2022/04/02 08:43:09;;;;;;;19.15;11.57;;;5.00;70.80;;;;;;5050614;28;20029;-70
2022/04/02 08:46:04;;;;;;;25.90;12.70;;;5.00;71.30;;;;;;5050515;28;20021;-70
2022/04/02 08:48:34;;;;;;;20.52;11.35;;;5.10;72.40;;;;;;5029322;28;20045;-69
2022/04/02 08:51:12;;;;;;;13.82;10.45;;;5.10;71.50;;;;;;5031293;28;20033;-70
2022/04/02 08:53:51;;;;;;;17.38;11.50;;;5.10;71.40;;;;;;5031554;28;20478;-70
2022/04/02 08:56:28;;;;;;;18.85;10.52;;;5.20;71.30;;;;;;5041863;28;20052;-70
2022/04/02 08:59:07;;;;;;;19.20;10.40;;;5.20;71.00;;;;;;5051106;28;20094;-71
2022/04/02 09:02:05;;;;;;;18.58;11.18;;;5.30;71.30;;;;;;5050400;28;20033;-69
2022/04/02 09:04:45;;;;;;;14.75;10.20;;;5.20;69.90;;;;;;5050642;28;20136;-69
2022/04/02 09:07:35;;;;;;;18.85;11.30;;;5.20;69.90;;;;;;5050849;28;20103;-70
2022/04/02 09:10:15;;;;;;;16.58;10.38;;;5.20;69.30;;;;;;5051106;28;20029;-70
2022/04/02 09:12:58;;;;;;;17.33;9.95;;;5.20;68.10;;;;;;5051044;28;20462;-70
2022/04/02 09:16:00;;;;;;;16.90;9.80;;;5.30;68.40;;;;;;5053528;28;20377;-70
2022/04/02 09:18:39;;;;;;;15.23;10.02;;;5.30;66.80;;;;;;5042545;28;20037;-70
2022/04/02 09:22:02;;;;;;;19.38;10.70;;;5.20;66.70;;;;;;5054598;28;20378;-70
2022/04/02 09:25:13;;;;;;;19.00;9.10;;;5.20;66.80;;;;;;5016486;28;20430;-70
2022/04/02 09:28:04;;;;;;;16.73;10.23;;;5.10;66.30;;;;;;5054637;28;20041;-70
2022/04/02 09:31:04;;;;;;;13.88;9.65;;;5.10;67.30;;;;;;5053940;28;20025;-69
2022/04/02 09:33:33;;;;;;;18.38;9.45;;;5.20;67.00;;;;;;5054059;28;20037;-71
2022/04/02 09:36:17;;;;;;;16.40;9.45;;;5.20;67.20;;;;;;5054494;28;20421;-70
2022/04/02 09:38:57;;;;;;;14.20;9.30;;;5.20;67.10;;;;;;5054849;28;20104;-70
2022/04/02 09:41:45;;;;;;;17.33;9.55;;;5.30;66.10;;;;;;5053712;28;20112;-69
2022/04/02 09:44:40;;;;;;;13.77;9.25;;;5.30;66.20;;;;;;5054642;28;20323;-69
2022/04/02 09:47:17;;;;;;;16.05;9.35;;;5.20;65.90;;;;;;5054092;28;20071;-70
2022/04/02 09:50:02;;;;;;;14.75;8.95;;;5.20;66.70;;;;;;5054138;28;20478;-70
2022/04/02 09:52:28;;;;;;;18.25;8.35;;;5.20;66.80;;;;;;5052326;28;20416;-70
2022/04/02 09:55:13;;;;;;;14.55;8.90;;;5.30;67.20;;;;;;5053620;28;20090;-71
2022/04/02 09:58:14;;;;;;;16.15;8.25;;;5.40;66.80;;;;;;5053500;28;20432;-70
2022/04/02 10:00:58;;;;;;;17.02;8.85;;;5.40;66.10;;;;;;5053839;28;20025;-71
2022/04/02 10:03:56;;;;;;;13.88;8.93;;;5.50;65.90;;;;;;5053298;28;20036;-71
2022/04/02 10:06:41;;;;;;;12.32;9.27;;;5.50;65.20;;;;;;5053354;28;20450;-69
2022/04/02 10:09:12;;;;;;;22.17;9.45;;;5.40;65.10;;;;;;5053547;28;20033;-70
2022/04/02 10:11:45;;;;;;;22.17;9.80;;;5.40;64.90;;;;;;5053254;28;20024;-70
2022/04/02 10:14:14;;;;;;;19.30;9.98;;;5.40;65.90;;;;;;5054067;28;20051;-69
2022/04/02 10:16:40;;;;;;;15.10;9.40;;;5.40;65.00;;;;;;5052448;28;20462;-70
2022/04/02 10:19:08;;;;;;;19.35;10.60;;;5.40;65.50;;;;;;5053688;28;20155;-69
2022/04/02 10:21:39;;;;;;;21.63;11.18;;;5.40;65.70;;;;;;5053038;28;20025;-70
2022/04/02 10:24:23;;;;;;;20.23;11.25;;;5.40;66.30;;;;;;5053589;28;20025;-70
2022/04/02 10:27:01;;;;;;;20.38;10.07;;;5.40;66.00;;;;;;5052801;28;20025;-70
2022/04/02 10:29:52;;;;;;;18.30;11.23;;;5.50;66.80;;;;;;5043546;28;20033;-70
2022/04/02 10:32:39;;;;;;;21.60;11.25;;;5.50;66.20;;;;;;5032861;28;20494;-70
2022/04/02 10:35:10;;;;;;;26.88;11.00;;;5.40;66.30;;;;;;5033665;28;20100;-71
2022/04/02 10:38:04;;;;;;;24.02;9.93;;;5.30;66.50;;;;;;5032976;28;20067;-69
2022/04/02 10:40:31;;;;;;;26.13;10.68;;;5.20;66.90;;;;;;5032359;28;20371;-70
2022/04/02 10:43:04;;;;;;;15.98;9.90;;;5.10;67.70;;;;;;5033504;28;20029;-70
2022/04/02 10:45:34;;;;;;;18.33;9.88;;;5.10;68.00;;;;;;5032422;28;20442;-70
2022/04/02 10:48:10;;;;;;;16.85;9.93;;;5.10;68.10;;;;;;5033168;28;20037;-69
2022/04/02 10:50:41;;;;;;;18.80;10.73;;;5.00;67.90;;;;;;5032878;28;20029;-70
2022/04/02 10:53:10;;;;;;;16.63;10.43;;;5.00;68.30;;;;;;5033464;28;20029;-69
2022/04/02 10:55:45;;;;;;;22.55;9.27;;;5.00;68.10;;;;;;5032543;28;20104;-69
2022/04/02 10:58:12;;;;;;;17.85;9.60;;;5.10;67.50;;;;;;5033342;28;20037;-69
2022/04/02 11:00:44;;;;;;;20.90;9.77;;;5.10;67.50;;;;;;5032573;28;20489;-70
2022/04/02 11:03:27;;;;;;;18.27;10.18;;;5.10;67.10;;;;;;5033180;28;20108;-70
2022/04/02 11:05:53;;;;;;;20.67;10.05;;;5.10;67.40;;;;;;5033157;28;20030;-69
2022/04/02 11:08:22;;;;;;;22.00;10.27;;;5.00;67.10;;;;;;5048181;28;20482;-70
2022/04/02 11:10:48;;;;;;;18.92;10.73;;;5.00;67.10;;;;;;5033123;28;20372;-70
2022/04/02 11:13:30;;;;;;;15.35;9.70;;;4.90;67.50;;;;;;5032781;28;20025;-70
2022/04/02 11:15:57;;;;;;;19.90;10.38;;;4.90;67.50;;;;;;5032968;28;20025;-70
2022/04/02 11:18:22;;;;;;;23.00;10.20;;;4.80;67.40;;;;;;5031998;28;20044;-70
2022/04/02 11:20:50;;;;;;;17.55;10.02;;;4.80;67.90;;;;;;5048693;28;20029;-70
2022/04/02 11:23:45;;;;;;;18.75;10.07;;;4.80;68.80;;;;;;5052680;28;20025;-70
2022/04/02 11:26:14;;;;;;;20.35;10.18;;;4.80;67.70;;;;;;5052652;28;20071;-69
2022/04/02 11:28:47;;;;;;;20.30;9.68;;;4.90;67.80;;;;;;5051492;28;20446;-70
2022/04/02 11:31:14;;;;;;;28.75;10.02;;;4.90;67.10;;;;;;5052561;28;20493;-69
2022/04/02 11:33:51;;;;;;;18.40;9.60;;;4.90;67.70;;;;;;5052131;28;20079;-69
2022/04/02 11:36:23;;;;;;;20.90;9.80;;;4.90;67.80;;;;;;5052225;28;20037;-70
2022/04/02 11:38:56;;;;;;;21.98;9.95;;;4.90;67.50;;;;;;5051924;28;20025;-70
2022/04/02 11:41:32;;;;;;;22.15;10.25;;;4.90;67.30;;;;;;5051436;28;20389;-70
2022/04/02 11:44:09;;;;;;;19.13;10.52;;;4.80;67.90;;;;;;5052003;28;20040;-69
2022/04/02 11:47:20;;;;;;;20.55;10.73;;;4.80;67.40;;;;;;5051720;28;20421;-69
2022/04/02 11:49:48;;;;;;;14.40;9.45;;;4.80;67.80;;;;;;5050290;28;20052;-70
2022/04/02 11:52:16;;;;;;;21.65;9.82;;;4.80;68.30;;;;;;5050728;28;20033;-70
2022/04/02 11:54:59;;;;;;;22.00;9.70;;;4.80;69.00;;;;;;5051203;28;20387;-70
2022/04/02 11:57:25;;;;;;;15.27;9.38;;;4.80;68.30;;;;;;5051679;28;20076;-69
2022/04/02 12:00:01;;;;;;;21.05;9.40;;;4.70;68.00;;;;;;5051697;28;20032;-70
2022/04/02 12:02:37;;;;;;;19.60;10.02;;;4.70;68.30;;;;;;5051400;28;20162;-71
2022/04/02 12:05:06;;;;;;;21.40;10.80;;;4.70;68.70;;;;;;5051980;28;20048;-68
2022/04/02 12:07:51;;;;;;;14.30;10.38;;;4.60;68.90;;;;;;5051251;28;20033;-69
2022/04/02 12:10:25;;;;;;;15.88;10.02;;;4.60;69.80;;;;;;5051917;28;20063;-69
2022/04/02 12:12:53;;;;;;;18.98;10.60;;;4.70;70.20;;;;;;5051700;28;20083;-70
2022/04/02 12:15:20;;;;;;;15.82;10.77;;;4.60;71.10;;;;;;5051840;28;20029;-70
2022/04/02 12:17:47;;;;;;;20.80;11.77;;;4.70;71.10;;;;;;5051171;28;20037;-70
2022/04/02 12:20:32;;;;;;;21.05;10.48;;;4.60;70.90;;;;;;5050487;28;20043;-70
2022/04/02 12:23:10;;;;;;;22.25;11.40;;;4.60;71.60;;;;;;5047552;28;20057;-69
2022/04/02 12:25:57;;;;;;;19.42;11.38;;;4.60;72.10;;;;;;5047457;28;20023;-69
2022/04/02 12:28:23;;;;;;;15.02;10.57;;;4.60;71.80;;;;;;5050460;28;20037;-70
2022/04/02 12:30:51;;;;;;;16.98;10.52;;;4.60;71.40;;;;;;5047962;28;20462;-67
2022/04/02 12:33:22;;;;;;;16.52;11.90;;;4.60;71.40;;;;;;5050731;28;20021;-69
2022/04/02 12:36:09;;;;;;;20.60;11.00;;;4.60;71.50;;;;;;5050306;28;20477;-69
2022/04/02 12:38:37;;;;;;;18.35;11.55;;;4.70;72.00;;;;;;5050251;28;20047;-69
2022/04/02 12:41:04;;;;;;;18.92;11.60;;;4.60;72.10;;;;;;5050528;28;20075;-68
2022/04/02 12:43:37;;;;;;;19.02;11.45;;;4.60;72.20;;;;;;5049940;28;20103;-68
2022/04/02 12:46:03;;;;;;;18.05;11.63;;;4.70;72.70;;;;;;5051090;28;20025;-67
2022/04/02 12:48:45;;;;;;;16.85;11.38;;;4.60;72.90;;;;;;5050298;28;20113;-68
2022/04/02 12:51:15;;;;;;;21.95;11.55;;;4.70;72.70;;;;;;5052275;28;20029;-67
2022/04/02 12:53:43;;;;;;;16.85;11.20;;;4.60;73.10;;;;;;5053277;28;20028;-69
2022/04/02 12:56:31;;;;;;;17.58;11.90;;;4.60;72.90;;;;;;5053953;28;20072;-69
2022/04/02 12:58:58;;;;;;;16.00;11.95;;;4.60;72.90;;;;;;5053415;28;20052;-67
2022/04/02 13:01:27;;;;;;;22.40;12.30;;;4.50;72.60;;;;;;5053182;28;20031;-67